createdAt,value
2019-05-01T00:01:17.616Z,95.60
2019-05-01T00:04:04.457Z,95.00
2019-05-01T00:06:43.331Z,94.70
2019-05-01T00:09:13.594Z,93.80
2019-05-01T00:11:46.882Z,93.40
2019-05-01T00:14:17.383Z,93.50
2019-05-01T00:16:46.191Z,93.30
2019-05-01T00:19:19.766Z,93.40
2019-05-01T00:21:47.453Z,93.70
2019-05-01T00:24:17.687Z,93.80
2019-05-01T00:26:47.668Z,94.10
2019-05-01T00:29:16.355Z,94.40
2019-05-01T00:31:45.272Z,94.80
2019-05-01T00:34:19.740Z,94.90
2019-05-01T00:36:47.776Z,95.10
2019-05-01T00:39:20.665Z,95.40
2019-05-01T00:41:52.855Z,95.50
2019-05-01T00:44:22.000Z,95.80
2019-05-01T00:46:50.640Z,96.10
2019-05-01T00:49:19.563Z,96.30
2019-05-01T00:51:48.590Z,96.50
2019-05-01T00:54:18.504Z,97.10
2019-05-01T00:56:49.377Z,96.60
2019-05-01T00:59:28.883Z,96.60
2019-05-01T01:02:05.412Z,96.50
2019-05-01T01:04:38.234Z,96.50
2019-05-01T01:07:08.496Z,96.30
2019-05-01T01:09:45.551Z,96.10
2019-05-01T01:12:14.038Z,95.70
2019-05-01T01:14:46.377Z,95.40
2019-05-01T01:17:15.776Z,95.20
2019-05-01T01:19:44.571Z,95.10
2019-05-01T01:22:13.546Z,95.00
2019-05-01T01:24:42.289Z,95.20
2019-05-01T01:27:11.057Z,95.50
2019-05-01T01:29:39.719Z,95.20
2019-05-01T01:32:09.309Z,95.30
2019-05-01T01:34:39.040Z,95.40
2019-05-01T01:37:08.311Z,95.50
2019-05-01T01:39:38.282Z,95.40
2019-05-01T01:42:08.793Z,95.30
2019-05-01T01:44:51.730Z,94.90
2019-05-01T01:47:20.989Z,95.20
2019-05-01T01:49:49.805Z,95.20
2019-05-01T01:52:21.166Z,95.40
2019-05-01T01:54:50.094Z,95.50
2019-05-01T01:57:20.244Z,95.70
2019-05-01T01:59:51.511Z,96.00
2019-05-01T02:02:30.840Z,96.50
2019-05-01T02:05:13.508Z,96.60
2019-05-01T02:07:42.592Z,96.50
2019-05-01T02:10:12.294Z,96.50
2019-05-01T02:12:42.603Z,96.80
2019-05-01T02:15:13.131Z,96.80
2019-05-01T02:17:41.765Z,96.70
2019-05-01T02:20:13.128Z,96.80
2019-05-01T02:22:42.148Z,96.90
2019-05-01T02:25:11.974Z,97.10
2019-05-01T02:27:52.482Z,97.50
2019-05-01T02:30:22.619Z,98.00
2019-05-01T02:32:53.503Z,97.30
2019-05-01T02:35:25.333Z,96.60
2019-05-01T02:37:56.243Z,96.00
2019-05-01T02:40:43.521Z,95.70
2019-05-01T02:43:15.307Z,95.70
2019-05-01T02:45:47.036Z,95.10
2019-05-01T02:48:18.284Z,95.00
2019-05-01T02:50:50.149Z,94.40
2019-05-01T02:53:23.046Z,94.30
2019-05-01T02:56:11.115Z,94.00
2019-05-01T02:58:43.022Z,93.90
2019-05-01T03:01:14.239Z,94.10
2019-05-01T03:03:45.531Z,94.00
2019-05-01T03:06:17.842Z,94.00
2019-05-01T03:08:47.495Z,94.20
2019-05-01T03:11:16.267Z,94.70
2019-05-01T03:13:46.407Z,95.20
2019-05-01T03:16:19.259Z,95.40
2019-05-01T03:18:50.840Z,94.20
2019-05-01T03:21:32.167Z,94.30
2019-05-01T03:24:21.969Z,93.40
2019-05-01T03:26:53.265Z,93.50
2019-05-01T03:29:22.356Z,92.90
2019-05-01T03:32:14.375Z,92.80
2019-05-01T03:34:27.287Z,91.50
2019-05-01T03:37:03.229Z,91.00
2019-05-01T03:39:31.867Z,91.00
2019-05-01T03:42:00.747Z,91.00
2019-05-01T03:44:29.568Z,89.60
2019-05-01T03:47:00.153Z,89.30
2019-05-01T03:49:29.030Z,88.60
2019-05-01T03:52:00.901Z,88.60
2019-05-01T03:54:29.891Z,87.10
2019-05-01T03:56:58.963Z,87.60
2019-05-01T03:59:28.730Z,88.00
2019-05-01T04:01:59.770Z,89.40
2019-05-01T04:04:32.375Z,89.60
2019-05-01T04:07:11.793Z,89.10
2019-05-01T04:09:50.081Z,89.00
2019-05-01T04:12:27.009Z,89.50
2019-05-01T04:15:00.327Z,88.30
2019-05-01T04:20:53.054Z,88.40
2019-05-01T04:23:29.472Z,87.70
2019-05-01T04:26:00.037Z,85.60
2019-05-01T04:28:33.859Z,85.30
2019-05-01T04:31:08.362Z,85.40
2019-05-01T04:33:40.448Z,81.70
2019-05-01T04:36:15.402Z,82.60
2019-05-01T04:38:44.777Z,80.40
2019-05-01T04:41:17.563Z,79.80
2019-05-01T04:43:46.336Z,73.70
2019-05-01T04:46:16.357Z,73.50
2019-05-01T04:48:46.009Z,69.90
2019-05-01T04:51:20.549Z,67.80
2019-05-01T04:53:50.516Z,68.10
2019-05-01T04:56:21.173Z,67.00
2019-05-01T04:58:52.486Z,66.80
2019-05-01T05:01:22.892Z,65.50
2019-05-01T05:03:51.915Z,63.60
2019-05-01T05:06:20.713Z,62.70
2019-05-01T05:08:49.697Z,62.20
2019-05-01T05:11:24.021Z,62.80
2019-05-01T05:14:09.442Z,63.00
2019-05-01T05:16:57.610Z,62.80
2019-05-01T05:19:32.622Z,61.30
2019-05-01T05:22:02.717Z,59.90
2019-05-01T05:24:31.664Z,57.70
2019-05-01T05:27:02.165Z,57.60
2019-05-01T05:29:32.850Z,57.00
2019-05-01T05:32:03.652Z,56.50
2019-05-01T05:34:36.660Z,55.00
2019-05-01T05:39:52.351Z,53.30
2019-05-01T05:42:22.028Z,51.80
2019-05-01T05:44:55.172Z,51.20
2019-05-01T05:47:27.424Z,47.90
2019-05-01T05:50:00.591Z,47.60
2019-05-01T05:52:41.560Z,50.70
2019-05-01T05:55:11.945Z,51.10
2019-05-01T05:57:56.701Z,51.70
2019-05-01T06:00:40.283Z,52.30
2019-05-01T06:03:31.210Z,52.30
2019-05-01T06:06:22.519Z,52.70
2019-05-01T06:08:56.018Z,52.20
2019-05-01T06:11:47.012Z,51.00
2019-05-01T06:14:20.081Z,50.40
2019-05-01T06:16:52.067Z,48.80
2019-05-01T06:22:32.531Z,47.20
2019-05-01T06:25:05.554Z,46.80
2019-05-01T06:27:36.935Z,47.60
2019-05-01T06:30:11.141Z,47.10
2019-05-01T06:32:42.191Z,47.80
2019-05-01T06:35:13.033Z,50.00
2019-05-01T06:37:55.993Z,51.20
2019-05-01T06:40:46.586Z,52.00
2019-05-01T06:43:27.262Z,51.80
2019-05-01T06:46:12.170Z,52.10
2019-05-01T06:49:01.002Z,51.50
2019-05-01T06:51:53.158Z,49.50
2019-05-01T06:54:24.278Z,50.40
2019-05-01T06:56:54.132Z,51.40
2019-05-01T06:59:31.453Z,49.90
2019-05-01T07:02:00.504Z,47.10
2019-05-01T07:04:32.295Z,47.10
2019-05-01T07:07:18.503Z,45.40
2019-05-01T07:09:49.167Z,40.80
2019-05-01T07:12:28.394Z,40.80
2019-05-01T07:15:01.622Z,39.80
2019-05-01T07:17:37.780Z,38.80
2019-05-01T07:20:11.993Z,38.00
2019-05-01T07:22:44.103Z,38.10
2019-05-01T07:25:14.028Z,39.40
2019-05-01T07:27:43.661Z,41.00
2019-05-01T07:30:29.379Z,41.30
2019-05-01T07:33:03.805Z,41.50
2019-05-01T07:35:33.025Z,40.50
2019-05-01T07:38:07.571Z,39.70
2019-05-01T07:40:39.229Z,39.00
2019-05-01T07:43:13.687Z,38.20
2019-05-01T07:45:48.910Z,37.80
2019-05-01T07:48:22.694Z,36.80
2019-05-01T07:50:52.743Z,37.30
2019-05-01T07:53:23.734Z,37.90
2019-05-01T07:55:54.827Z,36.10
2019-05-01T07:58:23.928Z,36.20
2019-05-01T08:00:59.394Z,35.80
2019-05-01T08:03:30.459Z,35.30
2019-05-01T08:06:07.163Z,34.20
2019-05-01T08:08:39.609Z,34.40
2019-05-01T08:11:11.181Z,34.20
2019-05-01T08:13:39.861Z,33.70
2019-05-01T08:16:08.944Z,34.00
2019-05-01T08:18:43.948Z,34.60
2019-05-01T08:21:27.550Z,36.60
2019-05-01T08:23:58.994Z,38.00
2019-05-01T08:26:31.693Z,38.00
2019-05-01T08:29:10.418Z,38.30
2019-05-01T08:31:42.108Z,37.00
2019-05-01T08:34:12.684Z,34.60
2019-05-01T08:36:42.693Z,34.90
2019-05-01T08:39:16.403Z,34.70
2019-05-01T08:41:45.588Z,34.30
2019-05-01T08:44:14.399Z,35.00
2019-05-01T08:46:50.940Z,34.20
2019-05-01T08:49:49.452Z,33.40
2019-05-01T08:52:17.259Z,33.10
2019-05-01T08:54:46.662Z,33.80
2019-05-01T08:57:17.634Z,33.80
2019-05-01T08:59:46.611Z,33.00
2019-05-01T09:02:17.125Z,34.30
2019-05-01T09:04:46.027Z,33.80
2019-05-01T09:07:19.234Z,35.60
2019-05-01T09:09:47.664Z,34.10
2019-05-01T09:12:18.133Z,35.30
2019-05-01T09:14:51.290Z,33.80
2019-05-01T09:17:20.139Z,32.80
2019-05-01T09:19:52.778Z,32.00
2019-05-01T09:22:21.965Z,32.00
2019-05-01T09:24:53.026Z,33.00
2019-05-01T09:27:41.643Z,33.70
2019-05-01T09:30:35.186Z,32.10
2019-05-01T09:33:05.581Z,31.20
2019-05-01T09:35:40.317Z,30.60
2019-05-01T09:38:11.510Z,31.50
2019-05-01T09:40:41.837Z,30.50
2019-05-01T09:43:11.669Z,29.30
2019-05-01T09:45:40.727Z,29.60
2019-05-01T09:48:17.517Z,28.60
2019-05-01T09:50:50.763Z,28.50
2019-05-01T09:53:29.749Z,28.90
2019-05-01T09:56:10.455Z,29.70
2019-05-01T09:58:39.452Z,28.90
2019-05-01T10:01:08.969Z,30.40
2019-05-01T10:03:38.759Z,32.30
2019-05-01T10:06:12.864Z,32.90
2019-05-01T10:08:42.396Z,33.30
2019-05-01T10:11:13.886Z,33.60
2019-05-01T10:13:58.521Z,36.00
2019-05-01T10:16:26.926Z,34.60
2019-05-01T10:18:59.033Z,34.70
2019-05-01T10:21:32.334Z,32.50
2019-05-01T10:24:04.938Z,32.50
2019-05-01T10:26:37.449Z,31.20
2019-05-01T10:29:14.015Z,31.20
2019-05-01T10:32:01.067Z,30.80
2019-05-01T10:34:42.999Z,30.00
2019-05-01T10:37:28.171Z,29.40
2019-05-01T10:39:59.895Z,29.00
2019-05-01T10:42:34.794Z,28.80
2019-05-01T10:45:10.716Z,29.50
2019-05-01T10:47:43.739Z,30.40
2019-05-01T10:50:15.758Z,31.20
2019-05-01T10:53:04.457Z,30.80
2019-05-01T10:55:37.631Z,31.10
2019-05-01T10:58:07.707Z,30.70
2019-05-01T11:00:40.412Z,31.20
2019-05-01T11:03:14.357Z,32.00
2019-05-01T11:05:55.237Z,32.20
2019-05-01T11:08:14.655Z,32.80
2019-05-01T11:10:44.214Z,33.50
2019-05-01T11:13:13.057Z,34.60
2019-05-01T11:15:41.962Z,33.70
2019-05-01T11:18:13.194Z,34.20
2019-05-01T11:20:46.072Z,32.30
2019-05-01T11:23:19.365Z,32.50
2019-05-01T11:25:53.711Z,32.50
2019-05-01T11:28:26.664Z,31.80
2019-05-01T11:31:04.679Z,32.50
2019-05-01T11:33:55.423Z,33.00
2019-05-01T11:39:28.777Z,33.00
2019-05-01T11:42:02.706Z,32.30
2019-05-01T11:44:37.248Z,32.60
2019-05-01T11:47:07.305Z,33.10
2019-05-01T11:49:37.468Z,31.40
2019-05-01T11:52:09.819Z,31.40
2019-05-01T11:54:38.571Z,31.00
2019-05-01T11:57:07.743Z,31.20
2019-05-01T11:59:37.071Z,30.10
2019-05-01T12:02:09.506Z,30.60
2019-05-01T12:04:38.963Z,31.00
2019-05-01T12:07:08.007Z,30.00
2019-05-01T12:09:37.594Z,29.10
2019-05-01T12:12:11.446Z,30.40
2019-05-01T12:14:41.129Z,29.80
2019-05-01T12:17:14.605Z,30.10
2019-05-01T12:19:43.145Z,30.70
2019-05-01T12:22:12.033Z,30.40
2019-05-01T12:24:42.789Z,30.00
2019-05-01T12:27:11.529Z,30.40
2019-05-01T12:29:41.829Z,30.80
2019-05-01T12:32:10.461Z,31.70
2019-05-01T12:34:39.322Z,30.00
2019-05-01T12:37:27.736Z,30.50
2019-05-01T12:39:57.841Z,29.80
2019-05-01T12:42:28.873Z,30.10
2019-05-01T12:44:57.848Z,30.80
2019-05-01T12:47:44.734Z,29.30
2019-05-01T12:50:16.427Z,28.40
2019-05-01T12:52:47.672Z,28.80
2019-05-01T12:55:21.704Z,28.10
2019-05-01T12:57:50.493Z,28.70
2019-05-01T13:00:21.672Z,28.50
2019-05-01T13:02:50.480Z,29.00
2019-05-01T13:05:20.657Z,28.40
2019-05-01T13:07:52.289Z,28.10
2019-05-01T13:10:19.916Z,28.40
2019-05-01T13:12:48.621Z,28.90
2019-05-01T13:15:17.322Z,27.90
2019-05-01T13:17:46.794Z,27.50
2019-05-01T13:20:17.279Z,28.60
2019-05-01T13:22:46.022Z,28.00
2019-05-01T13:25:14.923Z,27.90
2019-05-01T13:27:46.673Z,28.30
2019-05-01T13:30:21.364Z,27.90
2019-05-01T13:32:51.659Z,28.30
2019-05-01T13:35:21.413Z,28.90
2019-05-01T13:37:52.164Z,28.20
2019-05-01T13:40:22.363Z,27.10
2019-05-01T13:42:51.039Z,27.70
2019-05-01T13:45:19.883Z,27.20
2019-05-01T13:47:48.707Z,27.20
2019-05-01T13:50:17.482Z,28.30
2019-05-01T13:52:47.934Z,27.70
2019-05-01T13:55:22.081Z,28.00
2019-05-01T13:57:51.653Z,27.90
2019-05-01T14:00:22.080Z,28.50
2019-05-01T14:02:50.834Z,28.20
2019-05-01T14:05:24.133Z,28.10
2019-05-01T14:07:53.006Z,27.80
2019-05-01T14:10:27.064Z,27.30
2019-05-01T14:12:55.895Z,27.90
2019-05-01T14:15:24.851Z,27.30
2019-05-01T14:17:53.471Z,27.90
2019-05-01T14:20:40.546Z,26.90
2019-05-01T14:23:13.043Z,26.60
2019-05-01T14:26:01.824Z,26.80
2019-05-01T14:28:32.154Z,26.30
2019-05-01T14:31:02.750Z,25.70
2019-05-01T14:33:33.887Z,26.20
2019-05-01T14:36:02.425Z,24.90
2019-05-01T14:38:36.290Z,24.90
2019-05-01T14:41:07.744Z,24.60
2019-05-01T14:43:36.672Z,24.50
2019-05-01T14:46:06.100Z,23.80
2019-05-01T14:48:36.272Z,23.20
2019-05-01T14:51:06.570Z,23.60
2019-05-01T14:53:37.372Z,23.30
2019-05-01T14:56:06.290Z,23.00
2019-05-01T14:58:37.645Z,23.40
2019-05-01T15:01:11.058Z,22.50
2019-05-01T15:03:39.759Z,22.80
2019-05-01T15:06:16.505Z,22.50
2019-05-01T15:08:45.174Z,22.90
2019-05-01T15:11:17.080Z,22.80
2019-05-01T15:14:02.360Z,22.40
2019-05-01T15:16:35.042Z,22.10
2019-05-01T15:19:10.512Z,22.60
2019-05-01T15:21:45.285Z,22.80
2019-05-01T15:24:11.523Z,23.60
2019-05-01T15:26:40.344Z,23.50
2019-05-01T15:29:09.310Z,23.40
2019-05-01T15:31:39.484Z,23.70
2019-05-01T15:34:09.146Z,24.00
2019-05-01T15:36:38.806Z,24.40
2019-05-01T15:39:11.090Z,24.80
2019-05-01T15:41:56.516Z,25.30
2019-05-01T15:44:30.927Z,26.50
2019-05-01T15:47:03.206Z,26.30
2019-05-01T15:49:32.050Z,25.70
2019-05-01T15:52:00.878Z,26.40
2019-05-01T15:54:29.745Z,26.80
2019-05-01T15:56:59.826Z,27.40
2019-05-01T15:59:28.735Z,28.10
2019-05-01T16:02:00.355Z,28.30
2019-05-01T16:04:31.207Z,29.00
2019-05-01T16:07:02.467Z,29.20
2019-05-01T16:09:36.441Z,29.40
2019-05-01T16:12:15.727Z,29.60
2019-05-01T16:14:45.258Z,29.50
2019-05-01T16:17:14.865Z,29.50
2019-05-01T16:19:43.471Z,29.60
2019-05-01T16:22:13.040Z,29.50
2019-05-01T16:24:43.298Z,29.80
2019-05-01T16:27:13.627Z,30.50
2019-05-01T16:29:42.813Z,30.00
2019-05-01T16:32:11.705Z,30.00
2019-05-01T16:34:41.935Z,30.00
2019-05-01T16:37:13.692Z,30.10
2019-05-01T16:40:04.741Z,30.40
2019-05-01T16:42:35.257Z,29.90
2019-05-01T16:45:05.654Z,30.10
2019-05-01T16:47:35.152Z,30.40
2019-05-01T16:50:06.134Z,30.70
2019-05-01T16:52:37.459Z,31.30
2019-05-01T16:55:07.776Z,30.70
2019-05-01T16:57:36.623Z,30.90
2019-05-01T17:00:08.269Z,30.80
2019-05-01T17:02:54.487Z,30.90
2019-05-01T17:05:43.166Z,31.10
2019-05-01T17:08:13.741Z,31.00
2019-05-01T17:10:47.320Z,31.50
2019-05-01T17:13:18.812Z,31.60
2019-05-01T17:15:52.023Z,31.70
2019-05-01T17:18:21.805Z,31.80
2019-05-01T17:20:52.310Z,31.50
2019-05-01T17:23:23.762Z,31.90
2019-05-01T17:25:53.371Z,32.40
2019-05-01T17:28:22.448Z,32.90
2019-05-01T17:30:52.784Z,32.60
2019-05-01T17:33:24.060Z,32.80
2019-05-01T17:35:53.360Z,32.80
2019-05-01T17:38:26.129Z,33.20
2019-05-01T17:40:55.023Z,33.30
2019-05-01T17:43:26.257Z,33.30
2019-05-01T17:45:55.019Z,33.40
2019-05-01T17:48:28.822Z,33.70
2019-05-01T17:51:00.048Z,33.90
2019-05-01T17:53:28.460Z,34.00
2019-05-01T17:55:57.258Z,34.10
2019-05-01T17:58:25.927Z,34.20
2019-05-01T18:00:56.375Z,34.50
2019-05-01T18:03:32.760Z,34.80
2019-05-01T18:06:06.578Z,34.80
2019-05-01T18:08:35.275Z,35.10
2019-05-01T18:11:03.946Z,35.40
2019-05-01T18:13:32.895Z,35.50
2019-05-01T18:16:22.254Z,36.10
2019-05-01T18:18:50.984Z,36.50
2019-05-01T18:21:20.362Z,36.40
2019-05-01T18:24:09.888Z,36.70
2019-05-01T18:26:52.501Z,37.00
2019-05-01T18:29:26.736Z,37.40
2019-05-01T18:31:56.938Z,37.20
2019-05-01T18:34:29.297Z,37.30
2019-05-01T18:37:01.493Z,37.40
2019-05-01T18:39:43.155Z,37.90
2019-05-01T18:42:13.417Z,37.70
2019-05-01T18:44:47.324Z,38.00
2019-05-01T18:47:13.993Z,37.90
2019-05-01T18:49:46.144Z,37.90
2019-05-01T18:52:14.994Z,39.10
2019-05-01T18:54:44.770Z,38.80
2019-05-01T18:57:13.611Z,38.90
2019-05-01T18:59:44.952Z,39.50
2019-05-01T19:02:13.932Z,40.40
2019-05-01T19:04:42.787Z,40.60
2019-05-01T19:07:11.562Z,41.00
2019-05-01T19:09:40.388Z,41.70
2019-05-01T19:12:19.608Z,41.80
2019-05-01T19:14:51.244Z,41.10
2019-05-01T19:17:21.483Z,42.40
2019-05-01T19:19:51.695Z,41.30
2019-05-01T19:22:20.970Z,40.80
2019-05-01T19:24:51.372Z,40.40
2019-05-01T19:27:24.244Z,40.20
2019-05-01T19:29:57.799Z,40.70
2019-05-01T19:32:25.804Z,40.10
2019-05-01T19:34:54.411Z,40.50
2019-05-01T19:37:28.193Z,39.80
2019-05-01T19:39:56.154Z,40.40
2019-05-01T19:42:25.721Z,40.50
2019-05-01T19:44:57.667Z,40.50
2019-05-01T19:47:26.921Z,40.90
2019-05-01T19:50:06.681Z,40.80
2019-05-01T19:52:32.435Z,41.00
2019-05-01T19:55:06.222Z,41.10
2019-05-01T19:57:31.994Z,40.90
2019-05-01T20:00:05.617Z,41.10
2019-05-01T20:02:34.699Z,41.50
2019-05-01T20:05:11.175Z,41.90
2019-05-01T20:07:42.106Z,42.40
2019-05-01T20:10:13.214Z,43.10
2019-05-01T20:12:42.057Z,43.50
2019-05-01T20:15:10.922Z,43.90
2019-05-01T20:17:43.038Z,44.20
2019-05-01T20:20:17.349Z,45.00
2019-05-01T20:22:48.129Z,45.70
2019-05-01T20:25:29.287Z,45.50
2019-05-01T20:28:00.863Z,46.20
2019-05-01T20:30:30.257Z,46.60
2019-05-01T20:33:02.114Z,46.90
2019-05-01T20:35:35.267Z,47.30
2019-05-01T20:38:07.840Z,47.50
2019-05-01T20:40:36.634Z,47.70
2019-05-01T20:43:08.698Z,47.90
2019-05-01T20:45:44.972Z,47.90
2019-05-01T20:48:23.498Z,48.40
2019-05-01T20:50:51.246Z,48.40
2019-05-01T20:53:21.548Z,48.60
2019-05-01T20:55:55.059Z,48.70
2019-05-01T20:58:25.875Z,48.70
2019-05-01T21:01:01.239Z,48.80
2019-05-01T21:03:30.960Z,48.90
2019-05-01T21:06:10.143Z,49.00
2019-05-01T21:08:43.349Z,49.10
2019-05-01T21:11:15.504Z,49.30
2019-05-01T21:13:44.120Z,49.40
2019-05-01T21:16:14.531Z,49.60
2019-05-01T21:18:43.634Z,50.10
2019-05-01T21:21:14.140Z,51.60
2019-05-01T21:23:48.114Z,52.60
2019-05-01T21:26:17.116Z,51.90
2019-05-01T21:28:49.085Z,52.90
2019-05-01T21:31:18.908Z,54.10
2019-05-01T21:33:50.531Z,54.90
2019-05-01T21:36:24.003Z,55.70
2019-05-01T21:38:51.737Z,56.20
2019-05-01T21:41:22.453Z,55.10
2019-05-01T21:43:53.253Z,54.50
2019-05-01T21:46:24.059Z,54.20
2019-05-01T21:48:53.620Z,54.10
2019-05-01T21:51:25.463Z,54.40
2019-05-01T21:53:57.722Z,54.40
2019-05-01T21:56:26.570Z,54.40
2019-05-01T21:58:59.511Z,54.50
2019-05-01T22:01:30.139Z,54.70
2019-05-01T22:03:58.715Z,55.30
2019-05-01T22:06:29.142Z,55.70
2019-05-01T22:08:58.000Z,55.90
2019-05-01T22:11:26.864Z,55.90
2019-05-01T22:14:00.256Z,56.30
2019-05-01T22:16:29.116Z,56.30
2019-05-01T22:19:13.147Z,56.50
2019-05-01T22:21:59.855Z,56.60
2019-05-01T22:24:37.145Z,57.20
2019-05-01T22:27:07.506Z,57.50
2019-05-01T22:29:50.259Z,57.50
2019-05-01T22:32:27.718Z,58.00
2019-05-01T22:34:59.769Z,58.80
2019-05-01T22:37:28.659Z,59.60
2019-05-01T22:39:58.960Z,60.40
2019-05-01T22:42:27.679Z,61.00
2019-05-01T22:44:56.403Z,61.60
2019-05-01T22:47:25.476Z,62.10
2019-05-01T22:49:56.110Z,62.10
2019-05-01T22:52:25.015Z,62.70
2019-05-01T22:54:54.862Z,63.00
2019-05-01T22:57:23.576Z,63.40
2019-05-01T22:59:52.344Z,63.80
2019-05-01T23:02:29.625Z,64.30
2019-05-01T23:05:00.571Z,64.50
2019-05-01T23:07:29.279Z,64.80
2019-05-01T23:09:59.436Z,64.90
2019-05-01T23:12:33.704Z,65.00
2019-05-01T23:15:05.661Z,64.90
2019-05-01T23:17:43.239Z,65.10
2019-05-01T23:20:12.146Z,65.20
2019-05-01T23:22:41.590Z,65.50
2019-05-01T23:25:10.419Z,65.90
2019-05-01T23:27:44.556Z,66.40
2019-05-01T23:30:15.819Z,66.90
2019-05-01T23:32:44.840Z,67.80
2019-05-01T23:35:14.099Z,68.30
2019-05-01T23:37:43.013Z,69.10
2019-05-01T23:40:15.638Z,69.30
2019-05-01T23:42:51.995Z,69.60
2019-05-01T23:45:15.398Z,70.30
2019-05-01T23:47:45.688Z,70.60
2019-05-01T23:50:16.663Z,71.70
2019-05-01T23:52:45.407Z,72.80
2019-05-01T23:55:14.043Z,73.30
2019-05-01T23:57:44.559Z,74.50
